Time;durP1;ratioP1;P1;durP2;ratioP2;P2;SDS_P1;SDS_P2;PMS_P1;PMS_P2;Temp;Humidity;BMP_temperature;BMP_pressure;BME280_temperature;BME280_humidity;BME280_pressure;Samples;Min_cycle;Max_cycle;Signal;HPM_P1;HPM_P2
2021/08/01 00:00:27;;;;;;;5.57;2.63;;;24.70;99.90;;;;;;5035315;28;20261;-91
2021/08/01 00:02:58;;;;;;;6.50;2.33;;;24.70;99.90;;;;;;5031531;28;20190;-90
2021/08/01 00:05:31;;;;;;;7.63;2.67;;;24.70;99.90;;;;;;5020105;28;20182;-90
2021/08/01 00:08:07;;;;;;;7.90;2.80;;;24.70;99.90;;;;;;5018400;28;20217;-90
2021/08/01 00:13:27;;;;;;;4.17;2.53;;;24.40;99.90;;;;;;5032960;28;20221;-91
2021/08/01 00:16:01;;;;;;;5.03;2.57;;;24.40;99.90;;;;;;5030765;28;20206;-91
2021/08/01 00:18:33;;;;;;;2.87;2.50;;;24.40;99.90;;;;;;5032057;28;20235;-91
2021/08/01 00:21:05;;;;;;;3.83;2.83;;;24.30;99.90;;;;;;5013746;28;20228;-92
2021/08/01 00:23:55;;;;;;;6.87;2.97;;;24.40;99.90;;;;;;5030956;28;20213;-91
2021/08/01 00:26:31;;;;;;;6.60;2.63;;;24.30;99.90;;;;;;5032745;28;20228;-91
2021/08/01 00:29:02;;;;;;;4.93;2.53;;;24.30;99.90;;;;;;5005022;28;20285;-91
2021/08/01 00:31:34;;;;;;;7.00;2.30;;;24.20;99.90;;;;;;5018054;28;20217;-92
2021/08/01 00:34:05;;;;;;;5.37;2.90;;;24.20;99.90;;;;;;4998872;28;20257;-91
2021/08/01 00:36:36;;;;;;;3.43;2.60;;;24.20;99.90;;;;;;5005627;28;20205;-91
2021/08/01 00:39:11;;;;;;;4.17;2.37;;;24.30;99.90;;;;;;5008015;28;20983;-91
2021/08/01 00:41:43;;;;;;;5.17;2.93;;;24.30;99.90;;;;;;5011607;28;20238;-91
2021/08/01 00:44:14;;;;;;;4.47;2.80;;;24.20;99.90;;;;;;5000276;28;20249;-91
2021/08/01 00:46:50;;;;;;;7.43;2.57;;;24.20;99.90;;;;;;5018923;28;20636;-91
2021/08/01 00:49:21;;;;;;;4.47;2.57;;;24.00;99.90;;;;;;5018435;28;20244;-91
2021/08/01 00:51:55;;;;;;;3.90;2.93;;;23.90;99.90;;;;;;5017660;28;20206;-92
2021/08/01 00:54:28;;;;;;;5.07;2.50;;;23.90;99.90;;;;;;5028312;28;20264;-92
2021/08/01 00:57:00;;;;;;;3.00;2.40;;;23.80;99.90;;;;;;5022634;28;20622;-91
2021/08/01 00:59:34;;;;;;;4.63;2.27;;;23.80;99.90;;;;;;5018705;28;20240;-91
2021/08/01 01:02:10;;;;;;;5.17;2.80;;;23.70;99.90;;;;;;5016480;28;20299;-91
2021/08/01 01:04:52;;;;;;;7.47;2.33;;;23.70;99.90;;;;;;5000221;28;20295;-92
2021/08/01 01:07:31;;;;;;;4.10;2.83;;;23.70;99.90;;;;;;4999405;28;20206;-92
2021/08/01 01:10:07;;;;;;;8.43;2.77;;;23.70;99.90;;;;;;4997726;28;20202;-94
2021/08/01 01:12:54;;;;;;;4.23;3.13;;;23.70;99.90;;;;;;4999583;28;20209;-92
2021/08/01 01:15:29;;;;;;;4.37;2.83;;;23.70;99.90;;;;;;4999674;28;20262;-92
2021/08/01 01:18:06;;;;;;;5.93;2.70;;;23.60;99.90;;;;;;5009477;28;20233;-90
2021/08/01 01:21:15;;;;;;;6.03;2.90;;;23.60;99.90;;;;;;4992568;28;20238;-91
2021/08/01 01:24:03;;;;;;;4.33;2.77;;;23.60;99.90;;;;;;4983437;28;20292;-91
2021/08/01 01:26:40;;;;;;;5.20;2.73;;;23.30;99.90;;;;;;5011173;28;20205;-91
2021/08/01 01:29:21;;;;;;;5.17;2.63;;;23.10;99.90;;;;;;5007158;28;20238;-91
2021/08/01 01:32:03;;;;;;;6.30;2.43;;;23.20;99.90;;;;;;5010252;28;20218;-91
2021/08/01 01:34:55;;;;;;;6.90;4.20;;;23.20;99.90;;;;;;5009047;28;20238;-90
2021/08/01 01:37:38;;;;;;;7.37;3.10;;;23.10;99.90;;;;;;5008549;28;20258;-91
2021/08/01 01:40:25;;;;;;;4.50;3.00;;;23.10;99.90;;;;;;5006035;28;20265;-91
2021/08/01 01:43:00;;;;;;;5.30;3.00;;;23.00;99.90;;;;;;4990603;28;20225;-90
2021/08/01 01:45:32;;;;;;;5.57;2.40;;;22.90;99.90;;;;;;5010096;28;20624;-91
2021/08/01 01:48:05;;;;;;;5.87;2.83;;;22.90;99.90;;;;;;5009749;28;20217;-90
2021/08/01 01:50:41;;;;;;;5.77;2.77;;;22.80;99.90;;;;;;5007780;28;20202;-91
2021/08/01 01:53:14;;;;;;;6.83;2.70;;;22.80;99.90;;;;;;5007964;28;20214;-90
2021/08/01 01:55:50;;;;;;;8.63;3.23;;;22.90;99.90;;;;;;4991778;28;20261;-90
2021/08/01 01:58:28;;;;;;;5.03;2.87;;;23.00;99.90;;;;;;5011009;28;20210;-90
2021/08/01 02:00:59;;;;;;;4.77;2.50;;;23.00;99.90;;;;;;5009946;28;20236;-91
2021/08/01 02:03:33;;;;;;;4.73;2.57;;;23.10;99.90;;;;;;5088144;23;20236;-89
2021/08/01 02:06:05;;;;;;;4.70;2.60;;;23.10;99.90;;;;;;5064092;28;20216;-91
2021/08/01 02:08:50;;;;;;;8.50;3.10;;;23.10;99.90;;;;;;5068679;28;20197;-91
2021/08/01 02:11:26;;;;;;;4.87;2.37;;;23.10;99.90;;;;;;5066041;28;20211;-91
2021/08/01 02:14:05;;;;;;;4.67;2.60;;;23.10;99.90;;;;;;5059685;28;20230;-91
2021/08/01 02:16:39;;;;;;;6.73;2.70;;;23.10;99.90;;;;;;5059124;28;20231;-90
2021/08/01 02:19:13;;;;;;;4.93;2.70;;;23.10;99.90;;;;;;5057839;28;20208;-91
2021/08/01 02:21:46;;;;;;;7.70;2.70;;;23.10;99.90;;;;;;5041452;28;20239;-90
2021/08/01 02:24:21;;;;;;;3.73;2.50;;;23.10;99.90;;;;;;5063204;28;20238;-91
2021/08/01 02:26:53;;;;;;;4.97;2.50;;;23.10;99.90;;;;;;5075905;28;20231;-91
2021/08/01 02:29:26;;;;;;;3.83;2.43;;;23.10;99.90;;;;;;5088215;23;20237;-90
2021/08/01 02:32:00;;;;;;;7.03;2.93;;;23.10;99.90;;;;;;5032407;28;20235;-90
2021/08/01 02:34:32;;;;;;;4.40;2.90;;;23.00;99.90;;;;;;5053078;28;20209;-91
2021/08/01 02:37:06;;;;;;;4.57;2.90;;;23.00;99.90;;;;;;5051794;28;20240;-90
2021/08/01 02:39:49;;;;;;;4.77;2.67;;;23.00;99.90;;;;;;5028720;28;20205;-91
2021/08/01 02:42:22;;;;;;;6.07;2.87;;;23.00;99.90;;;;;;5028636;28;20225;-91
2021/08/01 02:44:57;;;;;;;5.43;2.77;;;23.00;99.90;;;;;;5032097;28;20212;-91
2021/08/01 02:47:33;;;;;;;4.33;2.77;;;23.00;99.90;;;;;;5028882;28;20205;-90
2021/08/01 02:52:59;;;;;;;4.27;3.23;;;22.90;99.90;;;;;;5016749;28;20220;-89
2021/08/01 02:55:35;;;;;;;4.57;3.20;;;22.80;99.90;;;;;;5000456;28;20293;-91
2021/08/01 02:58:09;;;;;;;6.87;3.07;;;22.80;99.90;;;;;;5019301;28;20301;-90
2021/08/01 03:00:44;;;;;;;4.23;3.00;;;22.60;99.90;;;;;;5017231;28;20300;-91
2021/08/01 03:03:17;;;;;;;8.07;3.50;;;22.60;99.90;;;;;;5018040;28;20235;-92
2021/08/01 03:05:49;;;;;;;6.17;3.37;;;22.50;99.90;;;;;;5019881;28;20627;-91
2021/08/01 03:08:20;;;;;;;7.30;3.03;;;22.50;99.90;;;;;;5019948;28;20210;-90
2021/08/01 03:10:57;;;;;;;5.90;2.83;;;22.50;99.90;;;;;;5028416;28;20212;-90
2021/08/01 03:13:28;;;;;;;6.27;3.13;;;22.40;99.90;;;;;;5024476;28;20260;-90
2021/08/01 03:16:00;;;;;;;5.30;3.07;;;22.40;99.90;;;;;;5019033;28;20288;-91
2021/08/01 03:18:31;;;;;;;3.90;2.70;;;22.30;99.90;;;;;;5024659;28;20221;-91
2021/08/01 03:21:02;;;;;;;6.53;2.70;;;22.30;99.90;;;;;;5016325;28;20214;-91
2021/08/01 03:23:34;;;;;;;4.60;2.57;;;22.30;99.90;;;;;;5016234;28;20210;-91
2021/08/01 03:26:08;;;;;;;3.77;2.53;;;22.20;99.90;;;;;;5028969;28;20217;-90
2021/08/01 03:28:39;;;;;;;4.67;2.90;;;22.20;99.90;;;;;;5028049;28;20214;-91
2021/08/01 03:31:11;;;;;;;6.53;2.87;;;22.20;99.90;;;;;;5023822;28;20600;-90
2021/08/01 03:33:43;;;;;;;4.30;2.90;;;22.10;99.90;;;;;;5043429;28;20209;-90
2021/08/01 03:36:14;;;;;;;5.30;2.93;;;22.10;99.90;;;;;;5046330;28;20245;-90
2021/08/01 03:38:50;;;;;;;3.43;2.93;;;22.10;99.90;;;;;;5033476;28;20283;-90
2021/08/01 03:41:23;;;;;;;6.83;2.70;;;22.00;99.90;;;;;;5052657;28;20231;-91
2021/08/01 03:43:59;;;;;;;5.37;3.00;;;21.90;99.90;;;;;;5051326;28;20727;-91
2021/08/01 03:46:30;;;;;;;4.97;2.60;;;21.90;99.90;;;;;;5033043;28;20260;-91
2021/08/01 03:49:09;;;;;;;7.77;3.10;;;21.90;99.90;;;;;;5024245;28;20213;-91
2021/08/01 03:51:42;;;;;;;4.37;2.90;;;21.80;99.90;;;;;;5021677;28;20264;-91
2021/08/01 03:54:16;;;;;;;7.87;2.77;;;21.80;99.90;;;;;;5005602;28;20241;-91
2021/08/01 03:56:50;;;;;;;3.53;2.03;;;21.70;99.90;;;;;;5032195;28;20279;-91
2021/08/01 03:59:37;;;;;;;4.87;2.50;;;21.70;99.90;;;;;;5027323;28;20704;-91
2021/08/01 04:02:10;;;;;;;5.20;3.20;;;21.70;99.90;;;;;;5006921;28;20216;-91
2021/08/01 04:04:44;;;;;;;6.90;2.87;;;21.60;99.90;;;;;;5027008;28;20264;-92
2021/08/01 04:07:16;;;;;;;4.60;3.07;;;21.70;99.90;;;;;;5030833;28;20206;-92
2021/08/01 04:09:48;;;;;;;6.37;2.90;;;21.60;99.90;;;;;;5031362;28;20212;-92
2021/08/01 04:12:22;;;;;;;4.97;2.80;;;21.60;99.90;;;;;;5031648;28;20205;-92
2021/08/01 04:14:54;;;;;;;5.50;3.03;;;21.50;99.90;;;;;;5028558;28;20205;-91
2021/08/01 04:17:29;;;;;;;4.53;2.70;;;21.50;99.90;;;;;;5034197;28;20237;-92
2021/08/01 04:20:01;;;;;;;3.27;2.60;;;21.50;99.90;;;;;;5033241;28;20551;-93
2021/08/01 04:22:39;;;;;;;3.53;2.60;;;21.40;99.90;;;;;;5017413;28;20245;-91
2021/08/01 04:25:12;;;;;;;4.83;2.67;;;21.40;99.90;;;;;;5035621;28;20229;-91
2021/08/01 04:27:45;;;;;;;5.37;2.60;;;21.40;99.90;;;;;;5036950;28;20228;-91
2021/08/01 04:30:18;;;;;;;6.83;3.00;;;21.30;99.90;;;;;;5037361;28;20209;-92
2021/08/01 04:32:49;;;;;;;4.13;2.63;;;21.30;99.90;;;;;;5026859;28;20214;-92
2021/08/01 04:35:21;;;;;;;7.60;2.80;;;21.30;99.90;;;;;;5013065;28;20210;-91
2021/08/01 04:37:53;;;;;;;8.83;2.77;;;21.30;99.90;;;;;;5011370;28;20253;-91
2021/08/01 04:40:25;;;;;;;5.93;2.70;;;21.20;99.90;;;;;;5011368;28;20238;-91
2021/08/01 04:42:59;;;;;;;8.23;2.97;;;21.20;99.90;;;;;;5002456;28;20214;-91
2021/08/01 04:45:31;;;;;;;6.10;3.00;;;21.20;99.90;;;;;;5000123;28;20226;-91
2021/08/01 04:48:01;;;;;;;4.63;2.33;;;21.20;99.90;;;;;;5004383;28;20206;-91
2021/08/01 04:50:33;;;;;;;7.23;3.10;;;21.20;99.90;;;;;;5035385;28;20205;-92
2021/08/01 04:53:05;;;;;;;6.93;2.93;;;21.20;99.90;;;;;;5038460;28;20198;-89
2021/08/01 04:55:40;;;;;;;5.60;3.07;;;21.20;99.90;;;;;;5036466;28;20201;-89
2021/08/01 04:58:20;;;;;;;4.87;2.63;;;21.10;99.90;;;;;;5035506;28;20241;-88
2021/08/01 05:00:52;;;;;;;3.43;2.30;;;21.10;99.90;;;;;;5009821;28;20212;-91
2021/08/01 05:03:25;;;;;;;5.70;2.90;;;21.10;99.90;;;;;;5034787;28;20201;-91
2021/08/01 05:06:05;;;;;;;10.67;3.90;;;21.00;99.90;;;;;;5030304;28;20308;-91
2021/08/01 05:11:37;;;;;;;6.20;2.60;;;20.80;99.90;;;;;;5020820;28;20209;-90
2021/08/01 05:14:11;;;;;;;5.30;2.63;;;20.80;99.90;;;;;;5022413;28;20233;-89
2021/08/01 05:16:43;;;;;;;5.63;2.67;;;20.70;99.90;;;;;;5018677;28;20236;-90
2021/08/01 05:19:14;;;;;;;7.77;2.90;;;20.60;99.90;;;;;;5022595;28;20209;-89
2021/08/01 05:21:45;;;;;;;4.47;2.33;;;20.60;99.90;;;;;;5034783;28;20213;-90
2021/08/01 05:24:17;;;;;;;6.03;2.90;;;20.60;99.90;;;;;;5033381;28;20229;-92
2021/08/01 05:26:57;;;;;;;7.00;4.20;;;20.50;99.90;;;;;;5032090;28;20209;-91
2021/08/01 05:29:33;;;;;;;5.53;3.00;;;20.50;99.90;;;;;;5033422;28;20213;-92
2021/08/01 05:32:06;;;;;;;4.63;2.50;;;20.50;99.90;;;;;;5025213;28;20207;-90
2021/08/01 05:34:38;;;;;;;3.90;2.60;;;20.40;99.90;;;;;;5008540;28;20266;-90
2021/08/01 05:37:11;;;;;;;4.53;2.70;;;20.40;99.90;;;;;;4998638;28;20317;-90
2021/08/01 05:39:42;;;;;;;3.70;2.30;;;20.40;99.90;;;;;;4998537;28;20209;-90
2021/08/01 05:42:15;;;;;;;7.63;2.70;;;20.40;99.90;;;;;;4980284;28;20230;-90
2021/08/01 05:44:48;;;;;;;4.80;2.20;;;20.40;99.90;;;;;;4998104;28;20226;-91
2021/08/01 05:47:19;;;;;;;6.87;2.60;;;20.40;99.90;;;;;;4997554;28;20248;-91
2021/08/01 05:49:51;;;;;;;5.17;2.43;;;20.40;99.90;;;;;;5009757;28;20202;-89
2021/08/01 05:52:22;;;;;;;3.23;2.17;;;20.40;99.90;;;;;;4992000;28;20226;-90
2021/08/01 05:54:55;;;;;;;10.40;2.33;;;20.40;99.90;;;;;;5020768;28;20311;-90
2021/08/01 05:57:26;;;;;;;4.30;2.57;;;20.40;99.90;;;;;;5002300;28;20300;-90
2021/08/01 05:59:59;;;;;;;3.67;2.10;;;20.40;99.90;;;;;;4996767;28;20642;-90
2021/08/01 06:02:30;;;;;;;7.40;2.70;;;20.40;99.90;;;;;;4999906;28;20214;-91
2021/08/01 06:05:02;;;;;;;6.70;2.73;;;20.40;99.90;;;;;;5001611;28;20274;-91
2021/08/01 06:07:34;;;;;;;5.03;2.20;;;20.30;99.90;;;;;;4999266;28;20276;-91
2021/08/01 06:10:06;;;;;;;3.37;2.40;;;20.40;99.90;;;;;;4998535;28;20225;-93
2021/08/01 06:12:37;;;;;;;5.13;2.33;;;20.30;99.90;;;;;;4998311;28;20668;-91
2021/08/01 06:15:12;;;;;;;5.77;3.03;;;20.40;99.90;;;;;;4996932;28;20210;-92
2021/08/01 06:17:43;;;;;;;3.70;2.30;;;20.40;99.90;;;;;;4979523;28;20252;-91
2021/08/01 06:20:16;;;;;;;6.57;2.60;;;20.40;99.90;;;;;;4997921;28;20210;-91
2021/08/01 06:22:47;;;;;;;5.50;2.63;;;20.40;99.90;;;;;;4998426;28;20222;-92
2021/08/01 06:25:19;;;;;;;4.70;2.23;;;20.40;99.90;;;;;;4986538;28;20241;-91
2021/08/01 06:30:49;;;;;;;4.53;2.70;;;20.40;99.90;;;;;;5007216;28;20268;-91
2021/08/01 06:33:21;;;;;;;6.10;2.03;;;20.40;99.90;;;;;;4998994;28;20656;-92
2021/08/01 06:35:52;;;;;;;4.77;2.40;;;20.40;99.90;;;;;;4997680;28;20206;-91
2021/08/01 06:38:24;;;;;;;3.50;2.57;;;20.30;99.90;;;;;;4998108;28;20234;-91
2021/08/01 06:40:55;;;;;;;3.30;2.40;;;20.30;99.90;;;;;;4980084;28;20298;-88
2021/08/01 06:43:27;;;;;;;5.23;2.47;;;20.30;99.90;;;;;;5028903;28;20193;-88
2021/08/01 06:46:00;;;;;;;4.27;2.60;;;20.20;99.90;;;;;;5023043;28;20714;-90
2021/08/01 06:48:32;;;;;;;4.50;2.37;;;20.20;99.90;;;;;;5018050;28;20285;-90
2021/08/01 06:51:03;;;;;;;5.57;2.37;;;20.20;99.90;;;;;;4984160;28;20213;-89
2021/08/01 06:53:35;;;;;;;3.17;2.53;;;20.20;99.90;;;;;;4984507;28;20297;-90
2021/08/01 06:56:08;;;;;;;4.90;2.40;;;20.20;99.90;;;;;;5020153;28;20596;-91
2021/08/01 06:58:39;;;;;;;2.50;2.30;;;20.10;99.90;;;;;;5026160;28;20237;-90
2021/08/01 07:01:14;;;;;;;4.07;2.30;;;20.10;99.90;;;;;;5026691;28;20207;-91
2021/08/01 07:03:46;;;;;;;3.53;2.53;;;20.10;99.90;;;;;;5012950;28;20202;-90
2021/08/01 07:06:17;;;;;;;3.67;2.43;;;20.00;99.90;;;;;;5016033;28;20222;-90
2021/08/01 07:08:49;;;;;;;4.93;2.53;;;20.00;99.90;;;;;;5012562;28;20210;-91
2021/08/01 07:11:20;;;;;;;5.00;2.70;;;20.10;99.90;;;;;;5010954;28;20199;-90
2021/08/01 07:13:51;;;;;;;3.67;2.73;;;20.00;99.90;;;;;;5015646;28;20211;-91
2021/08/01 07:16:26;;;;;;;2.77;2.47;;;20.00;99.90;;;;;;5013034;28;20277;-90
2021/08/01 07:18:57;;;;;;;7.03;2.63;;;20.00;99.90;;;;;;5013104;28;20292;-91
2021/08/01 07:21:28;;;;;;;3.47;2.50;;;20.00;99.90;;;;;;5013220;28;20210;-91
2021/08/01 07:23:59;;;;;;;4.73;2.63;;;20.00;99.90;;;;;;5010764;28;20234;-90
2021/08/01 07:26:31;;;;;;;2.50;2.20;;;19.90;99.90;;;;;;5015316;28;20209;-90
2021/08/01 07:29:03;;;;;;;5.03;2.30;;;19.80;99.90;;;;;;5015004;28;20214;-91
2021/08/01 07:31:37;;;;;;;3.80;2.33;;;19.90;99.90;;;;;;4993339;28;20206;-92
2021/08/01 07:34:08;;;;;;;5.20;2.50;;;19.90;99.90;;;;;;5003681;28;20253;-91
2021/08/01 07:36:39;;;;;;;4.60;2.40;;;19.90;99.90;;;;;;5003858;28;20210;-91
2021/08/01 07:39:10;;;;;;;3.77;2.47;;;19.80;99.90;;;;;;5005601;28;20234;-92
2021/08/01 07:41:41;;;;;;;4.30;2.17;;;19.90;99.90;;;;;;5003533;28;20207;-91
2021/08/01 07:44:12;;;;;;;3.33;2.30;;;19.80;99.90;;;;;;5003349;28;20256;-91
2021/08/01 07:46:45;;;;;;;3.80;2.60;;;19.80;99.90;;;;;;5001494;28;20211;-90
2021/08/01 07:49:16;;;;;;;3.60;2.40;;;19.70;99.90;;;;;;5002466;28;20253;-91
2021/08/01 07:51:47;;;;;;;4.87;2.43;;;19.80;99.90;;;;;;5002659;28;20298;-90
2021/08/01 07:54:18;;;;;;;4.57;2.80;;;19.80;99.90;;;;;;5000927;28;20285;-91
2021/08/01 07:56:49;;;;;;;5.27;2.47;;;19.80;99.90;;;;;;5000935;28;20241;-90
2021/08/01 07:59:21;;;;;;;4.47;2.60;;;19.90;99.90;;;;;;4983997;28;20365;-91
2021/08/01 08:01:54;;;;;;;3.53;2.40;;;19.90;99.90;;;;;;4999897;28;20230;-90
2021/08/01 08:04:25;;;;;;;5.13;2.43;;;19.90;99.90;;;;;;5001525;28;20221;-90
2021/08/01 08:06:56;;;;;;;3.20;2.30;;;19.80;99.90;;;;;;5001005;28;20242;-90
2021/08/01 08:09:28;;;;;;;3.83;2.63;;;19.80;99.90;;;;;;5002150;28;20317;-89
2021/08/01 08:11:59;;;;;;;3.40;2.60;;;19.70;99.90;;;;;;5000931;28;20218;-90
2021/08/01 08:14:32;;;;;;;5.47;2.43;;;19.80;99.90;;;;;;5001904;28;20264;-90
2021/08/01 08:17:06;;;;;;;3.57;2.10;;;19.80;99.90;;;;;;5001473;28;20309;-90
2021/08/01 08:19:38;;;;;;;3.80;2.63;;;19.80;99.90;;;;;;5001070;28;20337;-91
2021/08/01 08:22:10;;;;;;;3.97;2.43;;;19.70;99.90;;;;;;5000532;28;20245;-91
2021/08/01 08:24:41;;;;;;;4.10;2.53;;;19.80;99.90;;;;;;5000947;28;20215;-90
2021/08/01 08:27:13;;;;;;;3.27;2.43;;;19.70;99.90;;;;;;5001347;28;20215;-91
2021/08/01 08:29:44;;;;;;;3.07;2.33;;;19.80;99.90;;;;;;4995863;28;20305;-91
2021/08/01 08:32:17;;;;;;;4.47;2.43;;;19.80;99.90;;;;;;5000139;28;20213;-90
2021/08/01 08:34:49;;;;;;;3.73;2.43;;;19.70;99.90;;;;;;5002349;28;20238;-91
2021/08/01 08:37:21;;;;;;;3.77;2.23;;;19.70;99.90;;;;;;5005002;28;20241;-89
2021/08/01 08:39:53;;;;;;;3.97;2.60;;;19.80;99.90;;;;;;5010050;28;20245;-90
2021/08/01 08:42:26;;;;;;;2.63;2.40;;;19.80;99.90;;;;;;5010623;28;20206;-90
2021/08/01 08:44:57;;;;;;;3.13;2.43;;;19.80;99.90;;;;;;5009151;28;20203;-91
2021/08/01 08:47:36;;;;;;;3.37;2.73;;;19.80;99.90;;;;;;5001824;28;20624;-91
2021/08/01 08:50:14;;;;;;;3.07;2.33;;;19.80;99.90;;;;;;5001574;28;20218;-91
2021/08/01 08:52:47;;;;;;;5.03;2.50;;;19.80;99.90;;;;;;5000128;28;20298;-90
2021/08/01 08:55:19;;;;;;;3.90;2.67;;;19.80;99.90;;;;;;5004121;28;20252;-90
2021/08/01 08:58:00;;;;;;;3.63;2.50;;;19.70;99.90;;;;;;5001009;28;20320;-90
2021/08/01 09:00:31;;;;;;;5.53;2.83;;;19.60;99.90;;;;;;5004257;28;20221;-91
2021/08/01 09:03:05;;;;;;;3.63;2.20;;;19.60;99.90;;;;;;4980052;28;20242;-91
2021/08/01 09:05:36;;;;;;;4.77;2.57;;;19.60;99.90;;;;;;4980091;28;20230;-90
2021/08/01 09:08:08;;;;;;;3.00;2.70;;;19.60;99.90;;;;;;4980235;28;20255;-91
2021/08/01 09:10:39;;;;;;;4.30;2.33;;;19.70;99.90;;;;;;4979127;28;20214;-89
2021/08/01 09:13:10;;;;;;;4.77;2.43;;;19.70;99.90;;;;;;4979814;28;20230;-90
2021/08/01 09:15:42;;;;;;;4.23;2.57;;;19.70;99.90;;;;;;4979785;28;20273;-91
2021/08/01 09:18:18;;;;;;;4.80;2.53;;;19.70;99.90;;;;;;4964321;28;20254;-91
2021/08/01 09:20:53;;;;;;;3.80;2.40;;;19.80;99.90;;;;;;4979754;28;20269;-90
2021/08/01 09:23:24;;;;;;;4.17;2.70;;;19.70;99.90;;;;;;4979826;28;20236;-90
2021/08/01 09:26:00;;;;;;;5.03;2.50;;;19.70;99.90;;;;;;4979778;28;20203;-91
2021/08/01 09:28:31;;;;;;;6.00;2.40;;;19.70;99.90;;;;;;4985623;28;20221;-90
2021/08/01 09:31:05;;;;;;;3.37;2.63;;;19.70;99.90;;;;;;4999819;28;20296;-91
2021/08/01 09:33:43;;;;;;;3.73;2.40;;;19.60;99.90;;;;;;4989835;28;20198;-89
2021/08/01 09:36:16;;;;;;;5.17;2.70;;;19.70;99.90;;;;;;5016287;28;20210;-92
2021/08/01 09:38:51;;;;;;;3.87;2.27;;;19.70;99.90;;;;;;5016446;28;20284;-92
2021/08/01 09:41:24;;;;;;;2.93;2.37;;;19.70;99.90;;;;;;4987837;28;20209;-92
2021/08/01 09:44:00;;;;;;;4.83;2.70;;;19.70;99.90;;;;;;5006305;28;20234;-91
2021/08/01 09:46:41;;;;;;;3.33;2.23;;;19.70;99.90;;;;;;4967095;28;20586;-90
2021/08/01 09:49:15;;;;;;;5.47;2.80;;;19.80;99.90;;;;;;4986084;28;20242;-91
2021/08/01 09:51:48;;;;;;;5.73;2.50;;;19.70;99.90;;;;;;4995327;28;20230;-90
2021/08/01 09:54:21;;;;;;;7.40;2.73;;;19.80;99.90;;;;;;5099632;23;20243;-89
2021/08/01 09:56:57;;;;;;;3.60;2.70;;;19.80;99.90;;;;;;5088922;28;20299;-88
2021/08/01 09:59:31;;;;;;;4.30;2.40;;;19.70;99.90;;;;;;5092494;28;20294;-89
2021/08/01 10:02:04;;;;;;;3.40;2.60;;;19.70;99.90;;;;;;5085408;28;20318;-89
2021/08/01 10:04:40;;;;;;;3.17;2.57;;;19.70;99.90;;;;;;5085913;28;20212;-88
2021/08/01 10:07:13;;;;;;;3.40;2.13;;;19.70;99.90;;;;;;5083313;28;20230;-89
2021/08/01 10:09:44;;;;;;;5.57;3.47;;;19.70;99.90;;;;;;5079991;28;20242;-89
2021/08/01 10:12:16;;;;;;;2.63;2.30;;;19.80;99.90;;;;;;5079055;28;20214;-89
2021/08/01 10:14:49;;;;;;;5.50;2.57;;;19.70;99.90;;;;;;5066971;28;20231;-89
2021/08/01 10:17:22;;;;;;;3.63;2.40;;;19.70;99.90;;;;;;5059488;28;20232;-89
2021/08/01 10:19:56;;;;;;;4.33;2.50;;;19.80;99.90;;;;;;5056539;28;20247;-89
2021/08/01 10:22:28;;;;;;;4.70;2.47;;;19.80;99.90;;;;;;5057703;28;20204;-90
2021/08/01 10:25:04;;;;;;;4.67;2.50;;;19.80;99.90;;;;;;5057883;28;20204;-89
2021/08/01 10:27:39;;;;;;;4.07;2.30;;;19.80;99.90;;;;;;5057817;28;20673;-90
2021/08/01 10:30:10;;;;;;;5.10;2.43;;;19.70;99.90;;;;;;5056454;28;20238;-91
2021/08/01 10:32:45;;;;;;;5.17;2.53;;;19.60;99.90;;;;;;5057029;28;20606;-90
2021/08/01 10:35:22;;;;;;;3.67;2.50;;;19.60;99.90;;;;;;5057215;28;20208;-90
2021/08/01 10:38:00;;;;;;;3.80;2.50;;;19.60;99.90;;;;;;5058459;28;20669;-91
2021/08/01 10:40:35;;;;;;;6.40;2.53;;;19.60;99.90;;;;;;5056268;28;20235;-92
2021/08/01 10:43:11;;;;;;;5.33;2.70;;;19.50;99.90;;;;;;5057169;28;20306;-91
2021/08/01 10:45:48;;;;;;;4.67;2.40;;;19.50;99.90;;;;;;5037108;28;20213;-91
2021/08/01 10:48:27;;;;;;;5.87;2.47;;;19.50;99.90;;;;;;5041004;28;20290;-91
2021/08/01 10:51:02;;;;;;;5.40;2.47;;;19.50;99.90;;;;;;5039810;28;20220;-91
2021/08/01 10:53:33;;;;;;;4.63;2.50;;;19.50;99.90;;;;;;5040111;28;20290;-90
2021/08/01 10:56:40;;;;;;;6.83;2.30;;;19.50;99.90;;;;;;5040552;28;20212;-91
2021/08/01 10:59:50;;;;;;;3.60;2.50;;;19.50;99.90;;;;;;5043678;28;20196;-91
2021/08/01 11:02:22;;;;;;;3.30;2.30;;;19.50;99.90;;;;;;5060758;28;20239;-88
2021/08/01 11:04:54;;;;;;;5.27;2.30;;;19.40;99.90;;;;;;5069280;28;20222;-88
2021/08/01 11:08:05;;;;;;;4.30;2.30;;;19.50;99.90;;;;;;5066119;28;20615;-88
2021/08/01 11:10:37;;;;;;;4.00;2.30;;;19.50;99.90;;;;;;5059564;28;20235;-90
2021/08/01 11:13:38;;;;;;;4.43;2.67;;;19.50;99.90;;;;;;5063020;28;20682;-91
2021/08/01 11:16:14;;;;;;;5.53;2.77;;;19.40;99.90;;;;;;5060768;28;20216;-91
2021/08/01 11:18:47;;;;;;;4.37;2.30;;;19.40;99.90;;;;;;5062202;28;20231;-91
2021/08/01 11:21:37;;;;;;;5.00;2.17;;;19.40;99.90;;;;;;5061103;28;20293;-91
2021/08/01 11:24:25;;;;;;;4.77;2.33;;;19.40;99.90;;;;;;5060880;28;20204;-89
2021/08/01 11:27:14;;;;;;;4.33;2.70;;;19.40;99.90;;;;;;5060905;28;20204;-91
2021/08/01 11:30:03;;;;;;;5.37;2.60;;;19.40;99.90;;;;;;5060008;28;20299;-91
2021/08/01 11:32:54;;;;;;;6.10;2.43;;;19.40;99.90;;;;;;5060420;28;20735;-91
2021/08/01 11:35:25;;;;;;;6.23;2.80;;;19.40;99.90;;;;;;5061683;28;20610;-90
2021/08/01 11:38:11;;;;;;;4.07;2.90;;;19.40;99.90;;;;;;5060802;28;20575;-91
2021/08/01 11:40:48;;;;;;;4.23;2.57;;;19.50;99.90;;;;;;5060634;28;20298;-90
2021/08/01 11:43:20;;;;;;;6.20;2.83;;;19.50;99.90;;;;;;5060106;28;20294;-91
2021/08/01 11:46:02;;;;;;;4.40;2.67;;;19.40;99.90;;;;;;5059871;28;20264;-90
2021/08/01 11:48:33;;;;;;;6.27;2.80;;;19.40;99.90;;;;;;5060473;28;20272;-90
2021/08/01 11:51:09;;;;;;;4.97;3.07;;;19.40;99.90;;;;;;5059603;28;20212;-90
2021/08/01 11:53:42;;;;;;;3.47;2.80;;;19.50;99.90;;;;;;5060128;28;20745;-88
2021/08/01 11:56:16;;;;;;;5.83;2.97;;;19.50;99.90;;;;;;5054921;28;20203;-88
2021/08/01 11:58:53;;;;;;;3.70;2.60;;;19.50;99.90;;;;;;5061422;28;20262;-88
2021/08/01 12:01:25;;;;;;;5.33;2.90;;;19.40;99.90;;;;;;5058881;28;20234;-87
2021/08/01 12:03:58;;;;;;;7.67;2.60;;;19.40;99.90;;;;;;5069811;28;20212;-88
2021/08/01 12:06:35;;;;;;;4.10;2.47;;;19.50;99.90;;;;;;5071909;28;20216;-91
2021/08/01 12:09:18;;;;;;;4.60;2.90;;;19.50;99.90;;;;;;5063783;28;20235;-90
2021/08/01 12:11:53;;;;;;;3.57;2.60;;;19.40;99.90;;;;;;5063784;28;20247;-90
2021/08/01 12:14:29;;;;;;;6.87;2.80;;;19.40;99.90;;;;;;5064464;28;20283;-90
2021/08/01 12:17:02;;;;;;;5.23;3.07;;;19.40;99.90;;;;;;5045908;28;20199;-90
2021/08/01 12:19:37;;;;;;;4.83;2.80;;;19.40;99.90;;;;;;5060117;28;20204;-90
2021/08/01 12:22:11;;;;;;;6.23;2.73;;;19.40;99.90;;;;;;5062744;28;20238;-90
2021/08/01 12:24:46;;;;;;;5.50;2.87;;;19.40;99.90;;;;;;5052440;28;20211;-90
2021/08/01 12:27:20;;;;;;;4.20;2.90;;;19.40;99.90;;;;;;5070836;28;20582;-90
2021/08/01 12:29:54;;;;;;;6.50;2.80;;;19.30;99.90;;;;;;5071516;28;20261;-91
2021/08/01 12:32:29;;;;;;;7.10;3.27;;;19.30;99.90;;;;;;5071269;28;20220;-92
2021/08/01 12:35:09;;;;;;;3.83;2.90;;;19.20;99.90;;;;;;5071548;28;20242;-90
2021/08/01 12:37:45;;;;;;;3.27;2.97;;;19.20;99.90;;;;;;5060860;28;20216;-91
2021/08/01 12:40:27;;;;;;;4.33;3.00;;;19.30;99.90;;;;;;5048302;28;20251;-91
2021/08/01 12:43:03;;;;;;;3.47;2.70;;;19.30;99.90;;;;;;5052089;28;20212;-91
2021/08/01 12:45:36;;;;;;;5.70;2.97;;;19.30;99.90;;;;;;5034490;28;20212;-90
2021/08/01 12:48:09;;;;;;;5.30;2.90;;;19.30;99.90;;;;;;5033362;28;20268;-91
2021/08/01 12:50:45;;;;;;;5.37;3.20;;;19.30;99.90;;;;;;5050314;28;20225;-91
2021/08/01 12:53:17;;;;;;;5.57;3.07;;;19.30;99.90;;;;;;5060269;28;20211;-91
2021/08/01 12:55:54;;;;;;;5.43;2.73;;;19.40;99.90;;;;;;5070358;28;20211;-90
2021/08/01 12:58:34;;;;;;;5.47;3.07;;;19.40;99.90;;;;;;5070725;28;20207;-90
2021/08/01 13:01:06;;;;;;;5.00;2.40;;;19.40;99.90;;;;;;5069931;28;20274;-90
2021/08/01 13:03:38;;;;;;;4.77;3.00;;;19.40;99.90;;;;;;5069849;28;20208;-90
2021/08/01 13:06:10;;;;;;;3.93;2.50;;;19.40;99.90;;;;;;5060779;28;20213;-89
2021/08/01 13:08:43;;;;;;;4.07;2.50;;;19.40;99.90;;;;;;5050835;28;20215;-89
2021/08/01 13:11:16;;;;;;;4.87;2.57;;;19.40;99.90;;;;;;5047185;28;20205;-90
2021/08/01 13:13:57;;;;;;;5.13;3.03;;;19.40;99.90;;;;;;5049718;28;20212;-91
2021/08/01 13:16:49;;;;;;;4.43;3.03;;;19.40;99.90;;;;;;5051120;28;20248;-89
2021/08/01 13:19:21;;;;;;;5.77;3.00;;;19.40;99.90;;;;;;5050942;28;20209;-90
2021/08/01 13:22:07;;;;;;;6.60;3.07;;;19.30;99.90;;;;;;5051165;28;20240;-88
2021/08/01 13:24:41;;;;;;;4.73;2.87;;;19.30;99.90;;;;;;5049792;28;20224;-90
2021/08/01 13:27:13;;;;;;;9.20;3.17;;;19.30;99.90;;;;;;5051822;28;20639;-90
2021/08/01 13:29:46;;;;;;;6.87;2.57;;;19.30;99.90;;;;;;5051927;28;20212;-90
2021/08/01 13:32:19;;;;;;;4.80;2.70;;;19.30;99.90;;;;;;5054758;28;20224;-89
2021/08/01 13:34:53;;;;;;;5.50;3.40;;;19.30;99.90;;;;;;5072231;28;20219;-90
2021/08/01 13:37:28;;;;;;;4.77;2.77;;;19.40;99.90;;;;;;5051680;28;20239;-89